createdAt,value
2023-11-08T05:15:23.719Z,21.80
2023-11-08T05:16:23.710Z,31.00
2023-11-08T05:17:23.677Z,28.60
2023-11-08T05:18:23.765Z,32.40
2023-11-08T05:19:23.710Z,32.70
2023-11-08T05:20:23.613Z,23.00
2023-11-08T05:21:23.622Z,18.20
2023-11-08T05:22:23.606Z,13.60
2023-11-08T05:23:23.577Z,18.80
2023-11-08T05:24:23.608Z,17.50
2023-11-08T05:25:23.568Z,28.60
2023-11-08T05:26:23.533Z,24.90
2023-11-08T05:27:23.573Z,14.40
2023-11-08T05:28:23.510Z,18.80
2023-11-08T05:29:23.499Z,19.40
2023-11-08T05:30:23.516Z,31.00
2023-11-08T05:31:23.488Z,18.90
2023-11-08T05:32:23.470Z,21.50
2023-11-08T05:33:23.457Z,9.80
2023-11-08T05:34:23.481Z,16.80
2023-11-08T05:35:23.445Z,10.10
2023-11-08T05:36:23.432Z,18.10
2023-11-08T05:37:23.402Z,16.40
2023-11-08T05:38:23.387Z,15.20
2023-11-08T05:39:26.408Z,10.50
2023-11-08T05:40:23.362Z,13.10
2023-11-08T05:41:23.370Z,15.70
2023-11-08T05:42:23.350Z,19.30
2023-11-08T05:43:23.333Z,13.60
2023-11-08T05:44:23.309Z,13.40
2023-11-08T05:45:23.313Z,12.60
2023-11-08T05:46:23.289Z,12.30
2023-11-08T05:47:23.283Z,9.00
2023-11-08T05:48:23.345Z,14.90
2023-11-08T05:49:23.248Z,13.20
2023-11-08T05:50:23.237Z,15.60
2023-11-08T05:51:23.239Z,9.20
2023-11-08T05:52:24.935Z,15.80
2023-11-08T05:53:23.188Z,15.70
2023-11-08T05:54:23.194Z,14.40
2023-11-08T05:55:23.180Z,10.10
2023-11-08T05:56:23.159Z,11.90
2023-11-08T05:57:23.159Z,12.60
2023-11-08T05:58:23.126Z,12.40
2023-11-08T05:59:23.121Z,17.60
2023-11-08T06:00:23.130Z,12.60
2023-11-08T06:01:23.087Z,9.90
2023-11-08T06:02:23.139Z,10.90
2023-11-08T06:03:23.131Z,15.00
2023-11-08T06:04:23.064Z,10.60
2023-11-08T06:05:23.043Z,6.20
2023-11-08T06:06:23.145Z,11.90
2023-11-08T06:07:23.068Z,13.10
2023-11-08T06:08:22.989Z,8.00
2023-11-08T06:09:23.021Z,6.60
2023-11-08T06:10:22.967Z,6.80
2023-11-08T06:11:22.957Z,6.60
2023-11-08T06:12:22.960Z,8.30
2023-11-08T06:13:22.931Z,7.60
2023-11-08T06:14:22.927Z,9.40
2023-11-08T06:15:22.936Z,7.70
2023-11-08T06:16:22.885Z,7.30
2023-11-08T06:17:22.886Z,7.60
2023-11-08T06:18:23.032Z,7.10
2023-11-08T06:19:24.305Z,8.90
2023-11-08T06:20:22.886Z,8.10
2023-11-08T06:21:22.853Z,7.10
2023-11-08T06:22:22.809Z,6.00
2023-11-08T06:23:22.811Z,8.20
2023-11-08T06:24:22.790Z,9.20
2023-11-08T06:25:22.768Z,8.20
2023-11-08T06:26:22.758Z,8.90
2023-11-08T06:27:22.777Z,9.40
2023-11-08T06:28:22.746Z,9.10
2023-11-08T06:29:22.720Z,9.80
2023-11-08T06:30:22.710Z,8.30
2023-11-08T06:31:22.694Z,9.50
2023-11-08T06:32:22.698Z,12.20
2023-11-08T06:33:22.713Z,11.40
2023-11-08T06:34:22.783Z,5.30
2023-11-08T06:35:22.639Z,7.10
2023-11-08T06:36:22.737Z,6.50
2023-11-08T06:37:22.629Z,10.90
2023-11-08T06:38:22.617Z,8.30
2023-11-08T06:39:22.604Z,10.80
2023-11-08T06:40:22.588Z,9.70
2023-11-08T06:41:22.563Z,11.70
2023-11-08T06:42:22.647Z,10.30
2023-11-08T06:43:22.535Z,6.60
2023-11-08T06:44:22.544Z,9.60
2023-11-08T06:45:22.528Z,8.10
2023-11-08T06:46:22.513Z,11.10
2023-11-08T06:47:22.498Z,7.90
2023-11-08T06:48:22.553Z,10.40
2023-11-08T06:49:22.497Z,11.20
2023-11-08T06:50:22.452Z,6.70
2023-11-08T06:51:22.460Z,9.30
2023-11-08T06:52:22.420Z,9.10
2023-11-08T06:53:22.409Z,8.00
2023-11-08T06:54:22.403Z,9.00
2023-11-08T06:55:31.950Z,8.50
2023-11-08T06:56:23.430Z,10.30
2023-11-08T06:57:22.448Z,9.70
2023-11-08T06:58:22.358Z,7.50
2023-11-08T06:59:22.327Z,7.90
2023-11-08T07:00:22.368Z,8.60
2023-11-08T07:01:22.345Z,11.60
2023-11-08T07:02:22.323Z,7.30
2023-11-08T07:03:22.297Z,11.00
2023-11-08T07:04:22.402Z,9.50
2023-11-08T07:05:29.929Z,8.80
2023-11-08T07:06:23.314Z,9.00
2023-11-08T07:07:22.273Z,9.50
2023-11-08T07:08:22.237Z,14.60
2023-11-08T07:09:22.321Z,10.20
2023-11-08T07:10:22.214Z,5.50
2023-11-08T07:11:22.171Z,7.10
2023-11-08T07:12:22.219Z,7.30
2023-11-08T07:13:22.156Z,10.70
2023-11-08T07:14:22.148Z,8.30
2023-11-08T07:15:22.207Z,7.60
2023-11-08T07:16:22.113Z,10.10
2023-11-08T07:17:22.100Z,9.10
2023-11-08T07:18:22.160Z,8.50
2023-11-08T07:19:22.196Z,9.60
2023-11-08T07:20:22.071Z,8.60
2023-11-08T07:21:22.186Z,6.20
2023-11-08T07:22:22.031Z,10.20
2023-11-08T07:23:22.018Z,8.50
2023-11-08T07:24:22.185Z,9.70
2023-11-08T07:25:22.099Z,6.70
2023-11-08T07:26:22.182Z,9.40
2023-11-08T07:27:22.098Z,7.70
2023-11-08T07:28:22.080Z,8.20
2023-11-08T07:29:22.038Z,7.60
2023-11-08T07:30:22.033Z,9.60
2023-11-08T07:31:21.911Z,8.40
2023-11-08T07:32:21.911Z,12.30
2023-11-08T07:33:21.923Z,9.20
2023-11-08T07:34:21.914Z,9.50
2023-11-08T07:35:21.864Z,8.30
2023-11-08T07:36:21.867Z,9.70
2023-11-08T07:37:21.846Z,9.30
2023-11-08T07:38:21.850Z,9.50
2023-11-08T07:39:27.212Z,6.10
2023-11-08T07:40:22.799Z,6.40
2023-11-08T07:41:21.790Z,7.70
2023-11-08T07:42:21.810Z,7.70
2023-11-08T07:43:21.777Z,7.70
2023-11-08T07:44:21.826Z,7.10
2023-11-08T07:45:21.744Z,6.20
2023-11-08T07:46:21.729Z,8.30
2023-11-08T07:47:21.713Z,7.00
2023-11-08T07:48:21.752Z,10.30
2023-11-08T07:49:21.820Z,8.00
2023-11-08T07:50:21.676Z,9.50
2023-11-08T07:51:21.668Z,11.50
2023-11-08T07:52:21.654Z,8.50
2023-11-08T07:53:21.633Z,8.10
2023-11-08T07:54:21.646Z,6.00
2023-11-08T07:55:21.604Z,9.20
2023-11-08T07:56:21.649Z,8.50
2023-11-08T07:57:21.637Z,7.40
2023-11-08T07:58:21.563Z,6.20
2023-11-08T07:59:21.550Z,8.70
2023-11-08T08:00:21.583Z,7.90
2023-11-08T08:01:22.152Z,8.70
2023-11-08T08:02:21.561Z,8.20
2023-11-08T08:03:21.531Z,6.10
2023-11-08T08:04:21.598Z,7.30
2023-11-08T08:05:21.534Z,4.70
2023-11-08T08:06:21.542Z,8.70
2023-11-08T08:07:21.476Z,6.70
2023-11-08T08:08:21.464Z,6.80
2023-11-08T08:09:21.476Z,5.80
2023-11-08T08:10:21.415Z,9.40
2023-11-08T08:11:21.405Z,8.90
2023-11-08T08:12:21.460Z,9.40
2023-11-08T08:13:28.158Z,8.80
2023-11-08T08:14:22.377Z,9.40
2023-11-08T08:15:21.445Z,8.50
2023-11-08T08:16:21.477Z,6.40
2023-11-08T08:17:21.368Z,4.80
2023-11-08T08:18:21.512Z,5.70
2023-11-08T08:19:21.335Z,7.30
2023-11-08T08:20:21.332Z,8.30
2023-11-08T08:21:21.452Z,6.50
2023-11-08T08:22:21.254Z,10.40
2023-11-08T08:23:21.243Z,8.90
2023-11-08T08:24:21.224Z,6.40
2023-11-08T08:25:21.257Z,8.60
2023-11-08T08:26:21.204Z,6.50
2023-11-08T08:27:21.196Z,10.20
2023-11-08T08:28:21.177Z,4.60
2023-11-08T08:29:21.170Z,6.00
2023-11-08T08:30:21.171Z,8.70
2023-11-08T08:31:21.163Z,5.60
2023-11-08T08:32:21.124Z,4.30
2023-11-08T08:33:22.569Z,9.40
2023-11-08T08:34:28.656Z,6.60
2023-11-08T08:35:22.120Z,9.60
2023-11-08T08:36:21.086Z,4.80
2023-11-08T08:37:21.061Z,6.90
2023-11-08T08:38:21.162Z,7.60
2023-11-08T08:39:21.051Z,5.60
2023-11-08T08:40:21.038Z,5.80
2023-11-08T08:41:21.008Z,10.10
2023-11-08T08:42:20.989Z,6.60
2023-11-08T08:43:20.981Z,7.50
2023-11-08T08:44:20.973Z,8.00
2023-11-08T08:45:20.962Z,10.00
2023-11-08T08:46:20.952Z,8.10
2023-11-08T08:47:24.999Z,5.30
2023-11-08T08:48:21.938Z,6.60
2023-11-08T08:49:22.248Z,5.60
2023-11-08T08:50:20.899Z,8.00
2023-11-08T08:51:20.882Z,5.00
2023-11-08T08:52:20.858Z,6.90
2023-11-08T08:53:20.861Z,8.50
2023-11-08T08:54:20.840Z,7.10
2023-11-08T08:55:20.855Z,7.00
2023-11-08T08:56:20.810Z,7.10
2023-11-08T08:57:20.857Z,6.10
2023-11-08T08:58:20.795Z,6.50
2023-11-08T08:59:20.783Z,7.70
2023-11-08T09:00:20.924Z,4.70
2023-11-08T09:01:20.762Z,9.40
2023-11-08T09:02:20.738Z,6.60
2023-11-08T09:03:20.833Z,5.30
2023-11-08T09:04:20.806Z,7.30
2023-11-08T09:05:20.771Z,5.60
2023-11-08T09:06:20.745Z,9.30
2023-11-08T09:07:20.673Z,4.80
2023-11-08T09:08:20.659Z,7.90
2023-11-08T09:09:20.640Z,3.60
2023-11-08T09:10:20.626Z,7.60
2023-11-08T09:11:20.654Z,7.00
2023-11-08T09:12:20.611Z,9.90
2023-11-08T09:13:20.608Z,8.20
2023-11-08T09:14:20.577Z,7.00
2023-11-08T09:15:20.576Z,4.70
2023-11-08T09:16:20.544Z,5.60
2023-11-08T09:17:20.554Z,5.90
2023-11-08T09:18:20.537Z,10.50
2023-11-08T09:19:20.649Z,6.00
2023-11-08T09:20:20.498Z,6.60
2023-11-08T09:21:20.492Z,4.40
2023-11-08T09:22:20.485Z,4.70
2023-11-08T09:23:20.461Z,6.40
2023-11-08T09:24:20.445Z,3.90
2023-11-08T09:25:20.455Z,4.70
2023-11-08T09:26:20.445Z,7.40
2023-11-08T09:27:20.425Z,8.30
2023-11-08T09:28:20.390Z,7.50
2023-11-08T09:29:20.400Z,4.80
2023-11-08T09:30:20.387Z,8.20
2023-11-08T09:31:20.370Z,6.30
2023-11-08T09:32:20.355Z,8.30
2023-11-08T09:33:20.328Z,6.20
2023-11-08T09:34:20.412Z,6.80
2023-11-08T09:35:20.349Z,11.20
2023-11-08T09:36:20.306Z,6.50
2023-11-08T09:37:20.286Z,8.20
2023-11-08T09:38:20.269Z,6.20
2023-11-08T09:39:20.254Z,3.50
2023-11-08T09:40:20.244Z,8.20
2023-11-08T09:41:20.240Z,9.60
2023-11-08T09:42:20.216Z,7.90
2023-11-08T09:43:20.850Z,6.20
2023-11-08T09:44:20.189Z,10.40
2023-11-08T09:45:20.194Z,4.00
2023-11-08T09:46:20.160Z,10.20
2023-11-08T09:47:20.165Z,8.50
2023-11-08T09:48:20.142Z,8.40
2023-11-08T09:49:20.243Z,9.70
2023-11-08T09:50:20.213Z,6.00
2023-11-08T09:51:20.105Z,5.40
2023-11-08T09:52:20.090Z,10.60
2023-11-08T09:53:20.083Z,6.10
2023-11-08T09:54:20.064Z,6.60
2023-11-08T09:55:20.088Z,6.10
2023-11-08T09:56:20.036Z,6.50
2023-11-08T09:57:20.029Z,4.00
2023-11-08T09:58:20.009Z,6.00
2023-11-08T09:59:20.015Z,5.90
2023-11-08T10:00:19.997Z,7.40
2023-11-08T10:01:19.973Z,5.30
2023-11-08T10:02:19.998Z,6.10
2023-11-08T10:03:20.060Z,12.80
2023-11-08T10:04:24.162Z,7.10
2023-11-08T10:05:21.225Z,5.70
2023-11-08T10:06:20.112Z,4.70
2023-11-08T10:07:20.088Z,7.00
2023-11-08T10:08:19.907Z,9.90
2023-11-08T10:09:19.880Z,5.00
2023-11-08T10:10:19.864Z,7.70
2023-11-08T10:11:24.698Z,3.50
2023-11-08T10:12:20.846Z,5.40
2023-11-08T10:13:19.833Z,6.20
2023-11-08T10:14:19.796Z,11.80
2023-11-08T10:15:19.789Z,5.20
2023-11-08T10:16:20.558Z,6.90
2023-11-08T10:17:32.282Z,5.80
2023-11-08T10:19:33.673Z,6.10
2023-11-08T10:19:37.506Z,7.80
2023-11-08T10:20:20.894Z,9.10
2023-11-08T10:21:19.919Z,4.30
2023-11-08T10:22:19.777Z,9.20
2023-11-08T10:23:19.718Z,6.30
2023-11-08T10:24:19.669Z,4.80
2023-11-08T10:25:19.684Z,7.20
2023-11-08T10:26:19.648Z,7.10
2023-11-08T10:27:19.640Z,4.70
2023-11-08T10:28:19.630Z,6.10
2023-11-08T10:29:19.611Z,6.90
2023-11-08T10:30:19.591Z,5.40
2023-11-08T10:31:19.582Z,5.60
2023-11-08T10:32:19.623Z,5.20
2023-11-08T10:33:19.558Z,6.70
2023-11-08T10:34:19.538Z,4.20
2023-11-08T10:35:19.532Z,7.70
2023-11-08T10:36:19.518Z,5.70
2023-11-08T10:37:19.515Z,8.40
2023-11-08T10:38:19.492Z,5.10
2023-11-08T10:39:19.485Z,5.90
2023-11-08T10:40:19.462Z,9.50
2023-11-08T10:41:19.462Z,5.20
2023-11-08T10:42:20.904Z,5.90
2023-11-08T10:43:19.427Z,9.00
2023-11-08T10:44:19.408Z,7.00
2023-11-08T10:45:19.400Z,6.10
2023-11-08T10:46:19.412Z,7.30
2023-11-08T10:47:19.372Z,5.40
2023-11-08T10:48:19.463Z,11.10
2023-11-08T10:49:19.404Z,7.80
2023-11-08T10:50:19.384Z,7.60
2023-11-08T10:51:19.334Z,9.00
2023-11-08T10:52:19.363Z,11.30
2023-11-08T10:53:19.294Z,7.50
2023-11-08T10:54:19.282Z,7.10
2023-11-08T10:55:19.283Z,8.60
2023-11-08T10:56:19.286Z,6.50
2023-11-08T10:57:19.245Z,6.70
2023-11-08T10:58:19.230Z,7.30
2023-11-08T10:59:19.215Z,8.80
2023-11-08T11:00:19.267Z,6.60
2023-11-08T11:01:19.189Z,6.70
2023-11-08T11:02:19.178Z,4.40
2023-11-08T11:03:19.198Z,9.20
2023-11-08T11:04:19.200Z,4.90
2023-11-08T11:05:19.231Z,7.70
2023-11-08T11:06:19.132Z,9.90
2023-11-08T11:07:19.113Z,8.80
2023-11-08T11:08:19.096Z,7.40
2023-11-08T11:09:19.098Z,7.70
2023-11-08T11:10:19.125Z,8.00
2023-11-08T11:11:19.054Z,6.60
2023-11-08T11:12:19.045Z,7.10
2023-11-08T11:13:19.029Z,3.70
2023-11-08T11:14:19.040Z,11.60
2023-11-08T11:15:19.010Z,8.70
2023-11-08T11:16:23.795Z,7.00
2023-11-08T11:17:19.981Z,5.30
2023-11-08T11:18:18.996Z,6.70
2023-11-08T11:19:19.028Z,4.30
2023-11-08T11:20:18.945Z,5.00
2023-11-08T11:21:18.954Z,3.50
2023-11-08T11:22:18.914Z,7.60
2023-11-08T11:23:18.918Z,8.20
2023-11-08T11:24:18.941Z,7.50
2023-11-08T11:25:18.891Z,5.20
2023-11-08T11:26:18.858Z,5.70
2023-11-08T11:27:18.852Z,4.80
2023-11-08T11:28:18.865Z,7.50
2023-11-08T11:29:19.582Z,5.50
2023-11-08T11:30:18.817Z,5.50
2023-11-08T11:31:18.815Z,7.80
2023-11-08T11:32:18.815Z,7.10
2023-11-08T11:33:18.782Z,8.00
2023-11-08T11:34:18.756Z,7.70
2023-11-08T11:35:18.778Z,5.00
2023-11-08T11:36:18.728Z,6.30
2023-11-08T11:37:18.745Z,6.70
2023-11-08T11:38:18.758Z,12.10
2023-11-08T11:39:18.706Z,5.50
2023-11-08T11:40:18.682Z,7.50
2023-11-08T11:41:18.695Z,3.60
2023-11-08T11:42:18.684Z,5.00
2023-11-08T11:43:18.654Z,4.20
2023-11-08T11:44:18.644Z,5.60
2023-11-08T11:45:18.614Z,3.10
2023-11-08T11:46:18.599Z,5.80
2023-11-08T11:47:20.515Z,4.50
2023-11-08T11:48:18.597Z,6.70
2023-11-08T11:49:18.630Z,10.20
2023-11-08T11:50:18.554Z,5.20
2023-11-08T11:51:18.586Z,4.30
2023-11-08T11:52:18.540Z,6.90
2023-11-08T11:53:18.532Z,5.10
2023-11-08T11:54:18.511Z,4.00
2023-11-08T11:55:18.490Z,7.70
2023-11-08T11:56:18.487Z,6.40
2023-11-08T11:57:18.473Z,10.20
2023-11-08T11:58:18.454Z,6.00
2023-11-08T11:59:18.447Z,6.20
2023-11-08T12:00:18.596Z,4.20
2023-11-08T12:01:18.462Z,3.60
2023-11-08T12:02:18.403Z,5.80
2023-11-08T12:03:18.445Z,9.20
2023-11-08T12:04:18.533Z,5.30
2023-11-08T12:05:18.406Z,7.50
2023-11-08T12:06:18.382Z,4.10
2023-11-08T12:07:18.436Z,6.50
2023-11-08T12:08:18.333Z,3.70
2023-11-08T12:09:18.319Z,4.90
2023-11-08T12:10:18.307Z,3.00
2023-11-08T12:11:18.299Z,4.70
2023-11-08T12:12:18.271Z,3.70
2023-11-08T12:13:18.263Z,3.80
2023-11-08T12:14:18.242Z,3.60
2023-11-08T12:15:18.288Z,5.90
2023-11-08T12:16:18.214Z,7.50
2023-11-08T12:17:18.212Z,7.00
2023-11-08T12:18:18.188Z,4.90
2023-11-08T12:19:18.283Z,7.60
2023-11-08T12:20:18.176Z,4.20
2023-11-08T12:21:18.156Z,5.60
2023-11-08T12:22:18.152Z,3.30
2023-11-08T12:23:18.135Z,7.20
2023-11-08T12:24:18.121Z,4.20
2023-11-08T12:25:18.122Z,8.30
2023-11-08T12:26:18.153Z,6.60
2023-11-08T12:27:18.296Z,4.70
2023-11-08T12:28:18.070Z,4.20
2023-11-08T12:29:18.071Z,4.40
2023-11-08T12:30:18.037Z,7.90
2023-11-08T12:31:18.026Z,3.30
2023-11-08T12:32:18.010Z,5.20
2023-11-08T12:33:18.095Z,5.30
2023-11-08T12:34:18.061Z,5.20
2023-11-08T12:35:18.019Z,2.60
2023-11-08T12:36:17.968Z,3.30
2023-11-08T12:37:17.949Z,4.70
2023-11-08T12:38:17.939Z,6.10
2023-11-08T12:39:17.921Z,5.20
2023-11-08T12:40:17.910Z,5.50
2023-11-08T12:41:17.898Z,7.80
2023-11-08T12:42:17.926Z,6.30
2023-11-08T12:43:57.407Z,6.60
2023-11-08T12:44:18.866Z,4.80
2023-11-08T12:46:32.797Z,5.10
2023-11-08T12:46:37.252Z,6.10
2023-11-08T12:47:18.906Z,4.70
2023-11-08T12:48:17.819Z,6.40
2023-11-08T12:49:17.943Z,3.40
2023-11-08T12:50:17.784Z,4.60
2023-11-08T12:51:17.775Z,5.00
2023-11-08T12:52:17.757Z,3.00
2023-11-08T12:53:17.740Z,4.50
2023-11-08T12:54:17.727Z,2.40
2023-11-08T12:55:17.733Z,3.60
2023-11-08T12:56:17.708Z,4.70
2023-11-08T12:57:17.715Z,6.50
2023-11-08T12:58:17.675Z,5.20
2023-11-08T12:59:18.000Z,5.70
2023-11-08T13:00:17.648Z,4.00
2023-11-08T13:01:17.653Z,5.20
2023-11-08T13:02:19.761Z,7.10
2023-11-08T13:03:17.602Z,6.20
2023-11-08T13:04:17.945Z,6.30
2023-11-08T13:05:17.725Z,5.50
2023-11-08T13:06:17.573Z,5.60
2023-11-08T13:07:17.608Z,4.70
2023-11-08T13:08:17.533Z,3.70
2023-11-08T13:09:17.604Z,6.50
2023-11-08T13:10:17.559Z,6.20
2023-11-08T13:11:17.517Z,4.30
2023-11-08T13:12:17.504Z,3.70
2023-11-08T13:13:17.480Z,4.60
2023-11-08T13:14:17.460Z,4.70
2023-11-08T13:15:17.503Z,4.60
2023-11-08T13:16:17.448Z,4.70
2023-11-08T13:17:17.431Z,6.00
2023-11-08T13:18:17.445Z,5.20
2023-11-08T13:19:17.582Z,7.80
2023-11-08T13:20:17.391Z,4.80
2023-11-08T13:21:17.374Z,5.30
2023-11-08T13:22:17.357Z,6.70
2023-11-08T13:23:58.166Z,4.00
2023-11-08T13:24:18.361Z,4.40
2023-11-08T13:25:17.337Z,7.30
2023-11-08T13:26:17.301Z,8.50
2023-11-08T13:27:17.311Z,6.90
2023-11-08T13:28:17.286Z,6.50
2023-11-08T13:29:17.277Z,7.00
2023-11-08T13:30:17.273Z,6.30
2023-11-08T13:31:17.259Z,4.20
2023-11-08T13:32:17.227Z,6.10
2023-11-08T13:33:17.239Z,6.70
2023-11-08T13:34:17.352Z,3.20
2023-11-08T13:35:17.192Z,5.60
2023-11-08T13:36:17.174Z,6.10
2023-11-08T13:37:17.165Z,7.00
2023-11-08T13:38:17.146Z,4.40
2023-11-08T13:39:17.150Z,3.10
2023-11-08T13:40:17.164Z,4.70
2023-11-08T13:41:17.110Z,6.10
2023-11-08T13:42:17.094Z,3.30
2023-11-08T13:43:17.097Z,4.40
2023-11-08T13:44:17.102Z,5.20
2023-11-08T13:45:17.072Z,5.90
2023-11-08T13:46:17.048Z,6.80
2023-11-08T13:47:17.032Z,6.60
2023-11-08T13:48:17.069Z,4.10
2023-11-08T13:49:17.059Z,4.00
2023-11-08T13:50:16.980Z,2.40
2023-11-08T13:51:16.984Z,11.00
2023-11-08T13:52:16.984Z,7.30
2023-11-08T13:53:16.974Z,3.70
2023-11-08T13:54:16.937Z,3.70
2023-11-08T13:55:16.952Z,5.00
2023-11-08T13:56:16.922Z,5.20
2023-11-08T13:57:16.939Z,5.20
2023-11-08T13:58:19.483Z,2.70
2023-11-08T13:59:17.874Z,2.40
2023-11-08T14:00:16.862Z,5.70
2023-11-08T14:01:17.410Z,4.90
2023-11-08T14:02:18.891Z,5.50
2023-11-08T14:03:16.830Z,6.40
2023-11-08T14:04:16.887Z,6.00
2023-11-08T14:05:17.076Z,4.70
2023-11-08T14:06:16.866Z,5.80
2023-11-08T14:07:16.790Z,3.40
2023-11-08T14:08:16.751Z,6.30
2023-11-08T14:09:16.744Z,5.30
2023-11-08T14:10:16.778Z,4.60
2023-11-08T14:11:16.745Z,5.00
2023-11-08T14:12:16.745Z,10.00
2023-11-08T14:13:16.753Z,4.70
2023-11-08T14:14:16.675Z,5.80
2023-11-08T14:15:16.663Z,5.10
2023-11-08T14:16:16.698Z,4.30
2023-11-08T14:17:16.634Z,9.20
2023-11-08T14:18:16.625Z,5.10
2023-11-08T14:19:16.637Z,3.60
2023-11-08T14:20:16.611Z,5.10
2023-11-08T14:21:16.590Z,5.50
2023-11-08T14:22:16.579Z,2.80
2023-11-08T14:23:16.566Z,2.50
2023-11-08T14:24:16.547Z,4.20
2023-11-08T14:25:16.591Z,3.90
2023-11-08T14:26:16.576Z,3.80
2023-11-08T14:27:16.504Z,1.80
2023-11-08T14:28:16.602Z,3.30
2023-11-08T14:29:24.542Z,3.90
2023-11-08T14:30:17.483Z,3.60
2023-11-08T14:31:16.531Z,5.40
2023-11-08T14:32:16.442Z,4.10
2023-11-08T14:33:16.434Z,3.50
2023-11-08T14:34:16.537Z,3.20
2023-11-08T14:35:16.600Z,2.70
2023-11-08T14:36:16.406Z,4.40
2023-11-08T14:37:16.388Z,6.00
2023-11-08T14:38:16.373Z,3.80
2023-11-08T14:39:16.358Z,5.30
2023-11-08T14:40:16.418Z,4.40
2023-11-08T14:41:16.323Z,4.80
2023-11-08T14:42:16.315Z,4.20
2023-11-08T14:43:16.350Z,6.30
2023-11-08T14:44:16.311Z,5.90
2023-11-08T14:45:16.281Z,3.70
2023-11-08T14:46:16.297Z,4.30
2023-11-08T14:47:16.248Z,3.80
2023-11-08T14:48:16.346Z,5.00
2023-11-08T14:49:16.300Z,4.60
2023-11-08T14:50:16.218Z,4.00
2023-11-08T14:51:16.197Z,3.90
2023-11-08T14:52:16.246Z,3.40
2023-11-08T14:53:16.180Z,5.60
2023-11-08T14:54:16.173Z,6.50
2023-11-08T14:55:16.175Z,2.80
2023-11-08T14:56:16.134Z,5.20
2023-11-08T14:57:16.113Z,6.00
2023-11-08T14:58:16.151Z,7.70
2023-11-08T14:59:16.095Z,8.20
2023-11-08T15:00:16.107Z,6.00
2023-11-08T15:01:16.073Z,7.00
2023-11-08T15:02:16.056Z,5.40
2023-11-08T15:03:16.104Z,2.30
2023-11-08T15:04:16.145Z,5.30
2023-11-08T15:05:16.088Z,5.80
2023-11-08T15:06:16.034Z,5.40
2023-11-08T15:09:40.442Z,3.60
2023-11-08T15:09:49.401Z,5.90
2023-11-08T15:09:52.682Z,4.50
2023-11-08T15:10:17.746Z,5.80
2023-11-08T15:11:15.968Z,5.20
2023-11-08T15:12:15.932Z,10.90
2023-11-08T15:13:15.925Z,4.00
2023-11-08T15:14:15.896Z,5.50
2023-11-08T15:15:15.887Z,3.70
2023-11-08T15:16:15.876Z,6.30
2023-11-08T15:17:15.877Z,4.50
2023-11-08T15:18:15.842Z,6.70
2023-11-08T15:19:15.901Z,4.90
2023-11-08T15:20:15.821Z,4.20
2023-11-08T15:21:15.866Z,6.10
2023-11-08T15:22:15.837Z,2.00
2023-11-08T15:23:15.786Z,4.80
2023-11-08T15:24:15.769Z,6.30
2023-11-08T15:25:15.782Z,5.20
2023-11-08T15:26:15.756Z,3.80
2023-11-08T15:27:15.733Z,4.90
2023-11-08T15:28:15.888Z,5.50
2023-11-08T15:29:15.708Z,5.30
2023-11-08T15:30:15.774Z,4.80
2023-11-08T15:31:15.718Z,5.20
2023-11-08T15:32:15.671Z,7.50
2023-11-08T15:33:15.698Z,4.40
2023-11-08T15:34:15.738Z,4.70
2023-11-08T15:35:15.713Z,3.90
2023-11-08T15:36:15.627Z,4.60
2023-11-08T15:37:15.628Z,7.10
2023-11-08T15:38:15.590Z,6.10
2023-11-08T15:39:17.118Z,6.20
2023-11-08T15:40:15.624Z,4.20
2023-11-08T15:41:15.559Z,4.10
2023-11-08T15:42:15.685Z,3.70
2023-11-08T15:43:15.589Z,5.70
2023-11-08T15:44:15.519Z,8.50
2023-11-08T15:45:15.523Z,4.70
2023-11-08T15:46:15.574Z,4.30
2023-11-08T15:47:15.498Z,5.50
2023-11-08T15:48:15.565Z,5.30
2023-11-08T15:49:15.556Z,2.70
2023-11-08T15:50:15.466Z,1.40
2023-11-08T15:51:15.436Z,4.90
2023-11-08T15:52:15.460Z,4.80
2023-11-08T15:53:15.405Z,4.80
2023-11-08T15:54:15.404Z,4.60
2023-11-08T15:55:15.448Z,5.70
2023-11-08T15:56:15.436Z,5.40
2023-11-08T15:57:15.361Z,2.70
2023-11-08T15:58:15.375Z,5.20
2023-11-08T15:59:15.345Z,3.00
2023-11-08T16:00:15.320Z,3.80
2023-11-08T16:01:15.363Z,3.10
2023-11-08T16:02:15.302Z,5.00
2023-11-08T16:03:15.293Z,4.20
2023-11-08T16:04:15.343Z,3.50
2023-11-08T16:05:15.326Z,4.30
2023-11-08T16:06:15.302Z,2.70
2023-11-08T16:07:15.244Z,5.60
2023-11-08T16:08:15.225Z,6.70
2023-11-08T16:09:15.251Z,4.40
2023-11-08T16:10:15.232Z,5.10
2023-11-08T16:11:15.181Z,5.40
2023-11-08T16:12:15.176Z,3.20
2023-11-08T16:13:15.202Z,3.90
2023-11-08T16:14:15.137Z,5.40
2023-11-08T16:15:15.125Z,3.10
2023-11-08T16:16:15.179Z,3.40
2023-11-08T16:17:15.116Z,10.90
2023-11-08T16:18:15.094Z,5.40
2023-11-08T16:19:15.190Z,3.70
2023-11-08T16:20:15.072Z,4.50
2023-11-08T16:21:15.059Z,6.00
2023-11-08T16:22:15.135Z,4.60
2023-11-08T16:23:15.018Z,11.30
2023-11-08T16:24:15.002Z,5.20
2023-11-08T16:25:15.024Z,6.70
2023-11-08T16:26:14.988Z,2.10
2023-11-08T16:27:14.981Z,2.80
2023-11-08T16:28:14.982Z,2.70
2023-11-08T16:29:49.744Z,3.90
2023-11-08T16:30:16.110Z,3.90
2023-11-08T16:32:31.005Z,3.70
2023-11-08T16:32:35.101Z,2.80
2023-11-08T16:33:16.006Z,4.30
2023-11-08T16:34:15.180Z,3.30
2023-11-08T16:35:15.059Z,8.90
2023-11-08T16:36:14.854Z,2.30
2023-11-08T16:37:14.838Z,3.00
2023-11-08T16:38:14.830Z,4.80
2023-11-08T16:39:14.822Z,3.90
2023-11-08T16:40:14.879Z,2.90
2023-11-08T16:41:14.796Z,4.50
2023-11-08T16:42:14.784Z,2.20
2023-11-08T16:43:14.764Z,3.00
2023-11-08T16:44:15.145Z,2.60
2023-11-08T16:45:14.730Z,2.30
2023-11-08T16:46:14.801Z,3.40
2023-11-08T16:47:14.697Z,2.50
2023-11-08T16:48:14.748Z,3.50
2023-11-08T16:49:14.708Z,3.50
2023-11-08T16:50:14.713Z,4.40
2023-11-08T16:51:14.670Z,2.60
2023-11-08T16:52:14.657Z,2.50
2023-11-08T16:53:14.634Z,2.80
2023-11-08T16:54:14.601Z,4.30
2023-11-08T16:55:15.794Z,2.10
2023-11-08T16:56:14.582Z,3.50
2023-11-08T16:57:14.574Z,5.00
2023-11-08T16:58:14.558Z,3.00
2023-11-08T16:59:14.584Z,2.90
2023-11-08T17:00:14.554Z,2.90
2023-11-08T17:01:14.561Z,3.20
2023-11-08T17:02:14.501Z,3.90
2023-11-08T17:03:14.497Z,2.80
2023-11-08T17:04:14.531Z,3.50
2023-11-08T17:05:14.618Z,3.00
2023-11-08T17:06:14.563Z,5.10
2023-11-08T17:07:14.478Z,4.10
2023-11-08T17:08:14.425Z,5.40
2023-11-08T17:09:14.591Z,13.40
2023-11-08T17:10:14.448Z,8.90
2023-11-08T17:11:14.404Z,3.10
2023-11-08T17:12:14.379Z,8.20
2023-11-08T17:13:14.387Z,2.10
2023-11-08T17:14:14.358Z,3.50
2023-11-08T17:15:14.349Z,3.00
2023-11-08T17:16:14.350Z,3.00
2023-11-08T17:17:14.315Z,3.60
2023-11-08T17:18:14.354Z,4.70
2023-11-08T17:19:14.453Z,3.70
2023-11-08T17:20:14.286Z,3.10
2023-11-08T17:21:14.260Z,3.30
2023-11-08T17:22:14.290Z,3.40
2023-11-08T17:23:14.252Z,4.90
2023-11-08T17:24:15.704Z,5.10
2023-11-08T17:25:14.261Z,5.20
2023-11-08T17:26:14.205Z,4.60
2023-11-08T17:27:14.197Z,5.00
2023-11-08T17:28:14.220Z,3.70
2023-11-08T17:29:14.172Z,3.90
2023-11-08T17:30:14.152Z,3.60
2023-11-08T17:31:14.169Z,3.40
2023-11-08T17:32:14.136Z,2.80
2023-11-08T17:33:14.125Z,4.00
2023-11-08T17:34:14.140Z,6.40
2023-11-08T17:35:14.122Z,7.70
2023-11-08T17:36:14.088Z,7.60
2023-11-08T17:37:14.092Z,4.50
2023-11-08T17:38:14.063Z,5.50
2023-11-08T17:39:14.035Z,7.00
2023-11-08T17:40:14.147Z,6.40
2023-11-08T17:41:14.083Z,5.50
2023-11-08T17:42:14.013Z,8.30
2023-11-08T17:43:13.990Z,7.30
2023-11-08T17:44:13.970Z,7.00
2023-11-08T17:45:13.947Z,5.70
2023-11-08T17:46:13.991Z,6.10
2023-11-08T17:47:13.940Z,6.60
2023-11-08T17:48:13.935Z,4.00
2023-11-08T17:49:13.946Z,7.20
2023-11-08T17:50:13.880Z,5.40
2023-11-08T17:51:13.882Z,5.00
2023-11-08T17:52:20.924Z,4.20
2023-11-08T17:53:13.850Z,5.30
2023-11-08T17:54:13.841Z,3.90
2023-11-08T17:55:13.853Z,7.20
2023-11-08T17:56:13.861Z,4.10
2023-11-08T17:57:13.814Z,5.30
2023-11-08T17:58:13.807Z,3.70
2023-11-08T17:59:13.794Z,4.10
2023-11-08T18:00:13.781Z,5.00
2023-11-08T18:01:13.768Z,4.40
2023-11-08T18:02:13.741Z,7.90
2023-11-08T18:03:13.736Z,5.90
2023-11-08T18:04:13.786Z,3.90
2023-11-08T18:05:13.706Z,2.90
2023-11-08T18:06:17.209Z,5.20
2023-11-08T18:07:13.681Z,5.10
2023-11-08T18:08:13.663Z,3.40
2023-11-08T18:09:13.703Z,7.00
2023-11-08T18:10:13.686Z,5.40
2023-11-08T18:11:13.614Z,7.00
2023-11-08T18:12:16.359Z,5.30
2023-11-08T18:13:13.643Z,6.00
2023-11-08T18:14:13.601Z,6.70
2023-11-08T18:15:13.571Z,3.30
2023-11-08T18:16:13.604Z,5.90
2023-11-08T18:17:13.554Z,11.20
2023-11-08T18:18:13.625Z,11.60
2023-11-08T18:19:13.644Z,6.80
2023-11-08T18:20:13.536Z,7.20
2023-11-08T18:21:13.481Z,5.70
2023-11-08T18:22:13.543Z,3.90
2023-11-08T18:23:13.482Z,11.20
2023-11-08T18:24:13.473Z,3.60
2023-11-08T18:25:13.450Z,33.50
2023-11-08T18:26:13.430Z,11.80
2023-11-08T18:27:13.430Z,14.30
2023-11-08T18:28:13.477Z,6.50
2023-11-08T18:29:13.939Z,9.90
2023-11-08T18:30:13.385Z,5.60